sensor_id;sensor_type;location;lat;lon;timestamp;temperature;humidity
10175;DHT22;18221;38.704;0.152;2024-02-26T00:00:18;14.10;99.90
10175;DHT22;18221;38.704;0.152;2024-02-26T00:02:46;14.10;99.90
10175;DHT22;18221;38.704;0.152;2024-02-26T00:05:14;14.10;99.90
10175;DHT22;18221;38.704;0.152;2024-02-26T00:07:42;14.10;99.90
10175;DHT22;18221;38.704;0.152;2024-02-26T00:10:10;14.20;99.90
10175;DHT22;18221;38.704;0.152;2024-02-26T00:12:38;14.20;99.90
10175;DHT22;18221;38.704;0.152;2024-02-26T00:15:07;14.10;99.90
10175;DHT22;18221;38.704;0.152;2024-02-26T00:17:37;14.10;99.90
10175;DHT22;18221;38.704;0.152;2024-02-26T00:20:06;14.10;99.90
10175;DHT22;18221;38.704;0.152;2024-02-26T00:22:34;14.10;99.90
10175;DHT22;18221;38.704;0.152;2024-02-26T00:25:03;14.10;99.90
10175;DHT22;18221;38.704;0.152;2024-02-26T00:27:31;14.10;99.90
10175;DHT22;18221;38.704;0.152;2024-02-26T00:29:59;14.10;99.90
10175;DHT22;18221;38.704;0.152;2024-02-26T00:32:27;14.10;99.90
10175;DHT22;18221;38.704;0.152;2024-02-26T00:34:57;14.20;99.90
10175;DHT22;18221;38.704;0.152;2024-02-26T00:37:24;14.10;99.90
10175;DHT22;18221;38.704;0.152;2024-02-26T00:39:52;14.20;99.90
10175;DHT22;18221;38.704;0.152;2024-02-26T00:42:20;14.20;99.90
10175;DHT22;18221;38.704;0.152;2024-02-26T00:44:47;14.30;99.90
10175;DHT22;18221;38.704;0.152;2024-02-26T00:47:15;14.30;99.90
10175;DHT22;18221;38.704;0.152;2024-02-26T00:49:43;14.30;99.90
10175;DHT22;18221;38.704;0.152;2024-02-26T01:02:52;14.20;99.90
10175;DHT22;18221;38.704;0.152;2024-02-26T01:05:20;14.30;99.90
10175;DHT22;18221;38.704;0.152;2024-02-26T01:07:48;14.30;99.90
10175;DHT22;18221;38.704;0.152;2024-02-26T01:10:16;14.30;99.90
10175;DHT22;18221;38.704;0.152;2024-02-26T01:12:44;14.40;99.90
10175;DHT22;18221;38.704;0.152;2024-02-26T01:15:11;14.40;99.90
10175;DHT22;18221;38.704;0.152;2024-02-26T01:17:39;14.40;99.90
10175;DHT22;18221;38.704;0.152;2024-02-26T01:20:09;14.40;99.90
10175;DHT22;18221;38.704;0.152;2024-02-26T01:22:38;14.40;99.90
10175;DHT22;18221;38.704;0.152;2024-02-26T01:25:07;14.40;99.90
10175;DHT22;18221;38.704;0.152;2024-02-26T01:27:36;14.30;99.90
10175;DHT22;18221;38.704;0.152;2024-02-26T01:30:05;14.30;99.90
10175;DHT22;18221;38.704;0.152;2024-02-26T01:32:34;14.30;99.90
10175;DHT22;18221;38.704;0.152;2024-02-26T01:35:02;14.30;99.90
10175;DHT22;18221;38.704;0.152;2024-02-26T01:37:32;14.40;99.90
10175;DHT22;18221;38.704;0.152;2024-02-26T01:40:00;14.30;99.90
10175;DHT22;18221;38.704;0.152;2024-02-26T01:42:29;14.40;99.90
10175;DHT22;18221;38.704;0.152;2024-02-26T01:44:58;14.30;99.90
10175;DHT22;18221;38.704;0.152;2024-02-26T01:47:26;14.50;99.90
10175;DHT22;18221;38.704;0.152;2024-02-26T01:49:55;14.50;99.90
10175;DHT22;18221;38.704;0.152;2024-02-26T01:52:24;14.50;99.90
10175;DHT22;18221;38.704;0.152;2024-02-26T01:54:53;14.50;99.90
10175;DHT22;18221;38.704;0.152;2024-02-26T01:57:21;14.50;99.90
10175;DHT22;18221;38.704;0.152;2024-02-26T01:59:49;14.50;99.90
10175;DHT22;18221;38.704;0.152;2024-02-26T02:02:17;14.60;99.90
10175;DHT22;18221;38.704;0.152;2024-02-26T02:04:45;14.60;99.90
10175;DHT22;18221;38.704;0.152;2024-02-26T02:07:13;14.70;99.90
10175;DHT22;18221;38.704;0.152;2024-02-26T02:09:41;14.60;99.90
10175;DHT22;18221;38.704;0.152;2024-02-26T02:12:11;14.60;99.90
10175;DHT22;18221;38.704;0.152;2024-02-26T02:14:39;14.50;99.90
10175;DHT22;18221;38.704;0.152;2024-02-26T02:17:07;14.50;99.90
10175;DHT22;18221;38.704;0.152;2024-02-26T02:19:35;14.50;99.90
10175;DHT22;18221;38.704;0.152;2024-02-26T02:22:04;14.40;99.90
10175;DHT22;18221;38.704;0.152;2024-02-26T02:24:32;14.40;99.90
10175;DHT22;18221;38.704;0.152;2024-02-26T02:27:00;14.30;99.90
10175;DHT22;18221;38.704;0.152;2024-02-26T02:29:28;14.30;99.90
10175;DHT22;18221;38.704;0.152;2024-02-26T02:31:56;14.30;99.90
10175;DHT22;18221;38.704;0.152;2024-02-26T02:34:26;14.40;99.90
10175;DHT22;18221;38.704;0.152;2024-02-26T02:36:54;14.40;99.90
10175;DHT22;18221;38.704;0.152;2024-02-26T02:39:24;14.40;99.90
10175;DHT22;18221;38.704;0.152;2024-02-26T02:41:51;14.40;99.90
10175;DHT22;18221;38.704;0.152;2024-02-26T02:44:19;14.40;99.90
10175;DHT22;18221;38.704;0.152;2024-02-26T02:46:47;14.30;99.90
10175;DHT22;18221;38.704;0.152;2024-02-26T02:49:16;14.20;99.90
10175;DHT22;18221;38.704;0.152;2024-02-26T02:51:44;14.20;99.90
10175;DHT22;18221;38.704;0.152;2024-02-26T02:54:12;14.20;99.90
10175;DHT22;18221;38.704;0.152;2024-02-26T02:56:41;14.20;99.90
10175;DHT22;18221;38.704;0.152;2024-02-26T02:59:09;14.20;99.90
10175;DHT22;18221;38.704;0.152;2024-02-26T03:01:36;14.20;99.90
10175;DHT22;18221;38.704;0.152;2024-02-26T03:04:04;14.20;99.90
10175;DHT22;18221;38.704;0.152;2024-02-26T03:06:32;14.20;99.90
10175;DHT22;18221;38.704;0.152;2024-02-26T03:09:00;14.20;99.90
10175;DHT22;18221;38.704;0.152;2024-02-26T03:11:28;14.20;99.90
10175;DHT22;18221;38.704;0.152;2024-02-26T03:13:57;14.20;99.90
10175;DHT22;18221;38.704;0.152;2024-02-26T03:16:25;14.30;99.90
10175;DHT22;18221;38.704;0.152;2024-02-26T03:18:53;14.30;99.90
10175;DHT22;18221;38.704;0.152;2024-02-26T03:21:21;14.40;99.90
10175;DHT22;18221;38.704;0.152;2024-02-26T03:23:49;14.40;99.90
10175;DHT22;18221;38.704;0.152;2024-02-26T03:26:17;14.40;99.90
10175;DHT22;18221;38.704;0.152;2024-02-26T03:28:45;14.30;99.90
10175;DHT22;18221;38.704;0.152;2024-02-26T03:31:14;14.40;99.90
10175;DHT22;18221;38.704;0.152;2024-02-26T03:33:42;14.30;99.90
10175;DHT22;18221;38.704;0.152;2024-02-26T03:36:10;14.40;99.90
10175;DHT22;18221;38.704;0.152;2024-02-26T03:38:38;14.40;99.90
10175;DHT22;18221;38.704;0.152;2024-02-26T03:41:06;14.30;99.90
10175;DHT22;18221;38.704;0.152;2024-02-26T03:43:34;14.30;99.90
10175;DHT22;18221;38.704;0.152;2024-02-26T03:46:02;14.20;99.90
10175;DHT22;18221;38.704;0.152;2024-02-26T03:48:31;14.20;99.90
10175;DHT22;18221;38.704;0.152;2024-02-26T03:51:00;14.20;99.90
10175;DHT22;18221;38.704;0.152;2024-02-26T03:53:28;14.20;99.90
10175;DHT22;18221;38.704;0.152;2024-02-26T03:55:55;14.20;99.90
10175;DHT22;18221;38.704;0.152;2024-02-26T03:58:23;14.20;99.90
10175;DHT22;18221;38.704;0.152;2024-02-26T04:00:51;14.20;99.90
10175;DHT22;18221;38.704;0.152;2024-02-26T04:03:19;14.10;99.90
10175;DHT22;18221;38.704;0.152;2024-02-26T04:05:49;14.10;99.90
10175;DHT22;18221;38.704;0.152;2024-02-26T04:08:19;14.10;99.90
10175;DHT22;18221;38.704;0.152;2024-02-26T04:10:48;14.10;99.90
10175;DHT22;18221;38.704;0.152;2024-02-26T04:13:16;14.10;99.90
10175;DHT22;18221;38.704;0.152;2024-02-26T04:15:45;14.10;99.90
10175;DHT22;18221;38.704;0.152;2024-02-26T04:18:13;14.10;99.90
10175;DHT22;18221;38.704;0.152;2024-02-26T04:20:41;14.10;99.90
10175;DHT22;18221;38.704;0.152;2024-02-26T04:23:10;14.20;99.90
10175;DHT22;18221;38.704;0.152;2024-02-26T04:25:38;14.10;99.90
10175;DHT22;18221;38.704;0.152;2024-02-26T04:28:06;14.20;99.90
10175;DHT22;18221;38.704;0.152;2024-02-26T04:30:34;14.20;99.90
10175;DHT22;18221;38.704;0.152;2024-02-26T04:33:01;14.30;99.90
10175;DHT22;18221;38.704;0.152;2024-02-26T04:35:29;14.30;99.90
10175;DHT22;18221;38.704;0.152;2024-02-26T04:37:57;14.30;99.90
10175;DHT22;18221;38.704;0.152;2024-02-26T04:40:27;14.30;99.90
10175;DHT22;18221;38.704;0.152;2024-02-26T04:42:54;14.20;99.90
10175;DHT22;18221;38.704;0.152;2024-02-26T04:45:23;15.80;99.90
10175;DHT22;18221;38.704;0.152;2024-02-26T04:47:51;14.20;99.90
10175;DHT22;18221;38.704;0.152;2024-02-26T04:50:18;14.20;99.90
10175;DHT22;18221;38.704;0.152;2024-02-26T04:52:46;14.20;99.90
10175;DHT22;18221;38.704;0.152;2024-02-26T04:55:15;14.20;99.90
10175;DHT22;18221;38.704;0.152;2024-02-26T04:57:44;14.20;99.90
10175;DHT22;18221;38.704;0.152;2024-02-26T05:00:13;14.10;99.90
10175;DHT22;18221;38.704;0.152;2024-02-26T05:02:42;14.10;99.90
10175;DHT22;18221;38.704;0.152;2024-02-26T05:05:10;14.10;99.90
10175;DHT22;18221;38.704;0.152;2024-02-26T05:07:40;14.10;99.90
10175;DHT22;18221;38.704;0.152;2024-02-26T05:10:09;14.10;99.90
10175;DHT22;18221;38.704;0.152;2024-02-26T05:12:37;14.10;99.90
10175;DHT22;18221;38.704;0.152;2024-02-26T05:15:10;14.10;99.90
10175;DHT22;18221;38.704;0.152;2024-02-26T05:17:44;14.10;99.90
10175;DHT22;18221;38.704;0.152;2024-02-26T05:20:12;14.10;99.90
10175;DHT22;18221;38.704;0.152;2024-02-26T05:22:40;14.10;99.90
10175;DHT22;18221;38.704;0.152;2024-02-26T05:25:08;14.10;99.90
10175;DHT22;18221;38.704;0.152;2024-02-26T05:27:36;14.10;99.90
10175;DHT22;18221;38.704;0.152;2024-02-26T05:30:04;14.10;99.90
10175;DHT22;18221;38.704;0.152;2024-02-26T05:32:35;14.10;99.90
10175;DHT22;18221;38.704;0.152;2024-02-26T05:35:03;14.10;99.90
10175;DHT22;18221;38.704;0.152;2024-02-26T05:37:31;14.10;99.90
10175;DHT22;18221;38.704;0.152;2024-02-26T05:39:59;14.10;99.90
10175;DHT22;18221;38.704;0.152;2024-02-26T05:42:29;14.10;99.90
10175;DHT22;18221;38.704;0.152;2024-02-26T05:44:57;14.10;99.90
10175;DHT22;18221;38.704;0.152;2024-02-26T05:47:25;14.10;99.90
10175;DHT22;18221;38.704;0.152;2024-02-26T05:49:55;14.10;99.90
10175;DHT22;18221;38.704;0.152;2024-02-26T05:52:24;14.10;99.90
10175;DHT22;18221;38.704;0.152;2024-02-26T05:54:52;14.10;99.90
10175;DHT22;18221;38.704;0.152;2024-02-26T05:57:19;14.10;99.90
10175;DHT22;18221;38.704;0.152;2024-02-26T05:59:47;14.10;99.90
10175;DHT22;18221;38.704;0.152;2024-02-26T06:02:15;14.10;99.90
10175;DHT22;18221;38.704;0.152;2024-02-26T06:04:43;14.10;99.90
10175;DHT22;18221;38.704;0.152;2024-02-26T06:07:13;14.00;99.90
10175;DHT22;18221;38.704;0.152;2024-02-26T06:09:41;14.00;99.90
10175;DHT22;18221;38.704;0.152;2024-02-26T06:12:09;14.10;99.90
10175;DHT22;18221;38.704;0.152;2024-02-26T06:14:37;14.10;99.90
10175;DHT22;18221;38.704;0.152;2024-02-26T06:17:04;14.10;99.90
10175;DHT22;18221;38.704;0.152;2024-02-26T06:19:33;14.10;99.90
10175;DHT22;18221;38.704;0.152;2024-02-26T06:22:00;14.10;99.90
10175;DHT22;18221;38.704;0.152;2024-02-26T06:24:30;14.10;99.90
10175;DHT22;18221;38.704;0.152;2024-02-26T06:26:57;14.20;99.90
10175;DHT22;18221;38.704;0.152;2024-02-26T06:29:25;14.10;99.90
10175;DHT22;18221;38.704;0.152;2024-02-26T06:31:53;14.10;99.90
10175;DHT22;18221;38.704;0.152;2024-02-26T06:34:21;14.10;99.90
10175;DHT22;18221;38.704;0.152;2024-02-26T06:36:49;14.00;99.90
10175;DHT22;18221;38.704;0.152;2024-02-26T06:39:17;13.90;99.90
10175;DHT22;18221;38.704;0.152;2024-02-26T06:41:46;13.90;99.90
10175;DHT22;18221;38.704;0.152;2024-02-26T06:44:14;13.90;99.90
10175;DHT22;18221;38.704;0.152;2024-02-26T06:46:42;13.90;99.90
10175;DHT22;18221;38.704;0.152;2024-02-26T06:49:09;13.90;99.90
10175;DHT22;18221;38.704;0.152;2024-02-26T06:51:37;13.90;99.90
10175;DHT22;18221;38.704;0.152;2024-02-26T06:54:05;13.90;99.90
10175;DHT22;18221;38.704;0.152;2024-02-26T06:56:33;13.90;99.90
10175;DHT22;18221;38.704;0.152;2024-02-26T06:59:02;13.90;99.90
10175;DHT22;18221;38.704;0.152;2024-02-26T07:01:30;13.90;99.90
10175;DHT22;18221;38.704;0.152;2024-02-26T07:03:57;13.90;99.90
10175;DHT22;18221;38.704;0.152;2024-02-26T07:06:28;14.00;99.90
10175;DHT22;18221;38.704;0.152;2024-02-26T07:08:56;14.00;99.90
10175;DHT22;18221;38.704;0.152;2024-02-26T07:11:24;14.00;99.90
10175;DHT22;18221;38.704;0.152;2024-02-26T07:13:51;14.10;99.90
10175;DHT22;18221;38.704;0.152;2024-02-26T07:16:20;14.10;99.90
10175;DHT22;18221;38.704;0.152;2024-02-26T07:18:48;14.10;99.90
10175;DHT22;18221;38.704;0.152;2024-02-26T07:21:16;14.10;99.90
10175;DHT22;18221;38.704;0.152;2024-02-26T07:23:43;14.10;99.90
10175;DHT22;18221;38.704;0.152;2024-02-26T07:26:11;14.10;99.90
10175;DHT22;18221;38.704;0.152;2024-02-26T07:28:39;14.10;99.90
10175;DHT22;18221;38.704;0.152;2024-02-26T07:31:07;14.10;99.90
10175;DHT22;18221;38.704;0.152;2024-02-26T07:33:36;14.20;99.90
10175;DHT22;18221;38.704;0.152;2024-02-26T07:36:04;14.20;99.90
10175;DHT22;18221;38.704;0.152;2024-02-26T07:38:32;14.20;99.90
10175;DHT22;18221;38.704;0.152;2024-02-26T07:41:01;14.30;99.90
10175;DHT22;18221;38.704;0.152;2024-02-26T07:43:29;14.40;99.90
10175;DHT22;18221;38.704;0.152;2024-02-26T07:45:57;14.40;99.90
10175;DHT22;18221;38.704;0.152;2024-02-26T07:48:25;14.50;99.90
10175;DHT22;18221;38.704;0.152;2024-02-26T07:50:54;14.50;99.90
10175;DHT22;18221;38.704;0.152;2024-02-26T07:53:23;14.50;99.90
10175;DHT22;18221;38.704;0.152;2024-02-26T07:55:51;14.60;99.90
10175;DHT22;18221;38.704;0.152;2024-02-26T07:58:19;14.60;99.90
10175;DHT22;18221;38.704;0.152;2024-02-26T08:00:46;14.60;99.90
10175;DHT22;18221;38.704;0.152;2024-02-26T08:03:14;14.60;99.90
10175;DHT22;18221;38.704;0.152;2024-02-26T08:05:42;14.60;99.90
10175;DHT22;18221;38.704;0.152;2024-02-26T08:08:12;14.60;99.90
10175;DHT22;18221;38.704;0.152;2024-02-26T08:10:39;14.70;99.90
10175;DHT22;18221;38.704;0.152;2024-02-26T08:13:07;14.70;99.90
10175;DHT22;18221;38.704;0.152;2024-02-26T08:15:35;14.70;99.90
10175;DHT22;18221;38.704;0.152;2024-02-26T08:18:04;14.70;99.90
10175;DHT22;18221;38.704;0.152;2024-02-26T08:20:32;14.70;99.90
10175;DHT22;18221;38.704;0.152;2024-02-26T08:23:00;14.70;99.90
10175;DHT22;18221;38.704;0.152;2024-02-26T08:25:29;14.70;99.90
10175;DHT22;18221;38.704;0.152;2024-02-26T08:27:57;14.70;99.90
10175;DHT22;18221;38.704;0.152;2024-02-26T08:30:25;14.70;99.90
10175;DHT22;18221;38.704;0.152;2024-02-26T08:32:52;14.70;99.90
10175;DHT22;18221;38.704;0.152;2024-02-26T08:35:20;14.70;99.90
10175;DHT22;18221;38.704;0.152;2024-02-26T08:37:48;14.70;99.90
10175;DHT22;18221;38.704;0.152;2024-02-26T08:40:16;14.70;99.90
10175;DHT22;18221;38.704;0.152;2024-02-26T08:42:46;14.70;99.90
10175;DHT22;18221;38.704;0.152;2024-02-26T08:45:14;14.70;99.90
10175;DHT22;18221;38.704;0.152;2024-02-26T08:47:44;14.70;99.90
10175;DHT22;18221;38.704;0.152;2024-02-26T08:50:11;14.70;99.90
10175;DHT22;18221;38.704;0.152;2024-02-26T08:52:39;14.60;99.90
10175;DHT22;18221;38.704;0.152;2024-02-26T08:55:08;14.70;99.90
10175;DHT22;18221;38.704;0.152;2024-02-26T08:57:35;14.70;99.90
10175;DHT22;18221;38.704;0.152;2024-02-26T09:00:07;14.60;99.90
10175;DHT22;18221;38.704;0.152;2024-02-26T09:02:35;14.70;99.90
10175;DHT22;18221;38.704;0.152;2024-02-26T09:05:05;14.70;99.90
10175;DHT22;18221;38.704;0.152;2024-02-26T09:07:33;14.70;99.90
10175;DHT22;18221;38.704;0.152;2024-02-26T09:10:01;14.70;99.90
10175;DHT22;18221;38.704;0.152;2024-02-26T09:12:29;14.70;99.90
10175;DHT22;18221;38.704;0.152;2024-02-26T09:14:56;14.60;99.90
10175;DHT22;18221;38.704;0.152;2024-02-26T09:17:26;14.60;99.90
10175;DHT22;18221;38.704;0.152;2024-02-26T09:19:53;14.60;99.90
10175;DHT22;18221;38.704;0.152;2024-02-26T09:22:21;14.60;99.90
10175;DHT22;18221;38.704;0.152;2024-02-26T09:24:49;14.60;99.90
10175;DHT22;18221;38.704;0.152;2024-02-26T09:27:19;14.60;99.90
10175;DHT22;18221;38.704;0.152;2024-02-26T09:29:47;14.50;99.90
10175;DHT22;18221;38.704;0.152;2024-02-26T09:32:14;14.50;99.90
10175;DHT22;18221;38.704;0.152;2024-02-26T09:34:45;14.50;99.90
10175;DHT22;18221;38.704;0.152;2024-02-26T09:37:13;14.50;99.90
10175;DHT22;18221;38.704;0.152;2024-02-26T09:39:40;14.50;99.90
10175;DHT22;18221;38.704;0.152;2024-02-26T09:42:09;14.50;99.90
10175;DHT22;18221;38.704;0.152;2024-02-26T09:44:40;14.50;99.90
10175;DHT22;18221;38.704;0.152;2024-02-26T09:47:11;14.50;99.90
10175;DHT22;18221;38.704;0.152;2024-02-26T09:49:44;14.50;99.90
10175;DHT22;18221;38.704;0.152;2024-02-26T09:52:15;14.50;99.90
10175;DHT22;18221;38.704;0.152;2024-02-26T09:54:47;14.50;99.90
10175;DHT22;18221;38.704;0.152;2024-02-26T09:57:16;14.30;99.90
10175;DHT22;18221;38.704;0.152;2024-02-26T09:59:44;14.20;99.90
10175;DHT22;18221;38.704;0.152;2024-02-26T10:02:16;14.10;99.90
10175;DHT22;18221;38.704;0.152;2024-02-26T10:04:48;14.10;99.90
10175;DHT22;18221;38.704;0.152;2024-02-26T10:07:20;14.10;99.90
10175;DHT22;18221;38.704;0.152;2024-02-26T10:09:48;14.20;99.90
10175;DHT22;18221;38.704;0.152;2024-02-26T10:12:17;14.20;99.90
10175;DHT22;18221;38.704;0.152;2024-02-26T10:14:45;14.30;99.90
10175;DHT22;18221;38.704;0.152;2024-02-26T10:17:13;14.30;99.90
10175;DHT22;18221;38.704;0.152;2024-02-26T10:19:41;14.30;99.90
10175;DHT22;18221;38.704;0.152;2024-02-26T10:22:10;14.40;99.90
10175;DHT22;18221;38.704;0.152;2024-02-26T10:24:38;14.30;99.90
10175;DHT22;18221;38.704;0.152;2024-02-26T10:27:06;14.40;99.90
10175;DHT22;18221;38.704;0.152;2024-02-26T10:29:35;14.40;99.90
10175;DHT22;18221;38.704;0.152;2024-02-26T10:32:03;14.40;99.90
10175;DHT22;18221;38.704;0.152;2024-02-26T10:34:32;14.40;99.90
10175;DHT22;18221;38.704;0.152;2024-02-26T10:37:01;14.40;99.90
10175;DHT22;18221;38.704;0.152;2024-02-26T10:39:31;14.40;99.90
10175;DHT22;18221;38.704;0.152;2024-02-26T10:42:00;14.40;99.90
10175;DHT22;18221;38.704;0.152;2024-02-26T10:44:32;14.50;99.90
10175;DHT22;18221;38.704;0.152;2024-02-26T10:47:01;14.50;99.90
10175;DHT22;18221;38.704;0.152;2024-02-26T10:49:30;14.50;99.90
10175;DHT22;18221;38.704;0.152;2024-02-26T10:51:59;14.50;99.90
10175;DHT22;18221;38.704;0.152;2024-02-26T10:54:31;14.60;99.90
10175;DHT22;18221;38.704;0.152;2024-02-26T10:57:00;14.60;99.90
10175;DHT22;18221;38.704;0.152;2024-02-26T10:59:29;14.50;99.90
10175;DHT22;18221;38.704;0.152;2024-02-26T11:02:02;14.50;99.90
10175;DHT22;18221;38.704;0.152;2024-02-26T11:04:31;14.50;99.90
10175;DHT22;18221;38.704;0.152;2024-02-26T11:07:00;14.50;99.90
10175;DHT22;18221;38.704;0.152;2024-02-26T11:09:29;14.40;99.90
10175;DHT22;18221;38.704;0.152;2024-02-26T11:11:59;14.50;99.90
10175;DHT22;18221;38.704;0.152;2024-02-26T11:14:29;14.60;99.90
10175;DHT22;18221;38.704;0.152;2024-02-26T11:16:58;14.60;99.90
10175;DHT22;18221;38.704;0.152;2024-02-26T11:19:28;14.70;99.90
10175;DHT22;18221;38.704;0.152;2024-02-26T11:22:00;14.70;99.90
10175;DHT22;18221;38.704;0.152;2024-02-26T11:24:28;14.80;99.90
10175;DHT22;18221;38.704;0.152;2024-02-26T11:27:01;14.80;99.90
10175;DHT22;18221;38.704;0.152;2024-02-26T11:29:47;14.80;99.90
10175;DHT22;18221;38.704;0.152;2024-02-26T11:32:18;14.80;99.90
10175;DHT22;18221;38.704;0.152;2024-02-26T11:34:46;14.90;99.90
10175;DHT22;18221;38.704;0.152;2024-02-26T11:37:16;15.00;99.90
10175;DHT22;18221;38.704;0.152;2024-02-26T11:39:45;15.00;99.90
10175;DHT22;18221;38.704;0.152;2024-02-26T11:42:16;15.00;99.90
10175;DHT22;18221;38.704;0.152;2024-02-26T11:44:44;15.00;99.90
10175;DHT22;18221;38.704;0.152;2024-02-26T11:47:12;15.00;99.90
10175;DHT22;18221;38.704;0.152;2024-02-26T11:49:41;15.00;99.90
10175;DHT22;18221;38.704;0.152;2024-02-26T11:52:09;15.00;99.90
10175;DHT22;18221;38.704;0.152;2024-02-26T11:54:45;15.30;99.90
10175;DHT22;18221;38.704;0.152;2024-02-26T11:57:22;15.60;99.90
10175;DHT22;18221;38.704;0.152;2024-02-26T11:59:52;15.90;99.90
10175;DHT22;18221;38.704;0.152;2024-02-26T12:02:38;15.90;99.90
10175;DHT22;18221;38.704;0.152;2024-02-26T12:05:10;15.90;99.90
10175;DHT22;18221;38.704;0.152;2024-02-26T12:07:40;16.00;99.90
10175;DHT22;18221;38.704;0.152;2024-02-26T12:10:32;16.00;99.90
10175;DHT22;18221;38.704;0.152;2024-02-26T12:13:07;16.00;99.90
10175;DHT22;18221;38.704;0.152;2024-02-26T12:15:38;16.10;99.90
10175;DHT22;18221;38.704;0.152;2024-02-26T12:18:07;16.10;99.90
10175;DHT22;18221;38.704;0.152;2024-02-26T12:20:37;16.10;99.90
10175;DHT22;18221;38.704;0.152;2024-02-26T12:23:05;16.10;99.90
10175;DHT22;18221;38.704;0.152;2024-02-26T12:25:33;16.10;99.90
10175;DHT22;18221;38.704;0.152;2024-02-26T12:28:01;16.10;99.90
10175;DHT22;18221;38.704;0.152;2024-02-26T12:30:31;16.10;99.90
10175;DHT22;18221;38.704;0.152;2024-02-26T12:32:59;16.00;99.90
10175;DHT22;18221;38.704;0.152;2024-02-26T12:35:27;16.10;99.90
10175;DHT22;18221;38.704;0.152;2024-02-26T12:37:57;16.10;99.90
10175;DHT22;18221;38.704;0.152;2024-02-26T12:40:25;16.00;99.90
10175;DHT22;18221;38.704;0.152;2024-02-26T12:42:54;16.00;99.90
10175;DHT22;18221;38.704;0.152;2024-02-26T12:45:22;16.00;99.90
10175;DHT22;18221;38.704;0.152;2024-02-26T12:47:51;15.90;99.90
10175;DHT22;18221;38.704;0.152;2024-02-26T12:50:19;15.90;99.90
10175;DHT22;18221;38.704;0.152;2024-02-26T12:52:47;16.00;99.90
10175;DHT22;18221;38.704;0.152;2024-02-26T12:55:18;16.00;99.90
10175;DHT22;18221;38.704;0.152;2024-02-26T12:57:47;16.10;99.90
10175;DHT22;18221;38.704;0.152;2024-02-26T13:00:20;16.10;99.90
10175;DHT22;18221;38.704;0.152;2024-02-26T13:02:52;16.10;99.90
10175;DHT22;18221;38.704;0.152;2024-02-26T13:05:23;16.30;99.90
10175;DHT22;18221;38.704;0.152;2024-02-26T13:07:52;16.30;99.90
10175;DHT22;18221;38.704;0.152;2024-02-26T13:10:20;16.50;99.90
10175;DHT22;18221;38.704;0.152;2024-02-26T13:12:49;16.50;99.90
10175;DHT22;18221;38.704;0.152;2024-02-26T13:15:18;16.50;99.90
10175;DHT22;18221;38.704;0.152;2024-02-26T13:17:48;16.60;99.90
10175;DHT22;18221;38.704;0.152;2024-02-26T13:20:27;16.70;99.90
10175;DHT22;18221;38.704;0.152;2024-02-26T13:23:02;16.70;99.90
10175;DHT22;18221;38.704;0.152;2024-02-26T13:25:30;16.70;99.90
10175;DHT22;18221;38.704;0.152;2024-02-26T13:28:07;16.70;99.90
10175;DHT22;18221;38.704;0.152;2024-02-26T13:30:36;16.60;99.90
10175;DHT22;18221;38.704;0.152;2024-02-26T13:33:10;16.60;99.90
10175;DHT22;18221;38.704;0.152;2024-02-26T13:35:40;16.60;99.90
10175;DHT22;18221;38.704;0.152;2024-02-26T13:38:08;16.60;99.90
10175;DHT22;18221;38.704;0.152;2024-02-26T13:40:38;16.80;99.90
10175;DHT22;18221;38.704;0.152;2024-02-26T13:43:07;16.80;99.90
10175;DHT22;18221;38.704;0.152;2024-02-26T13:45:35;16.90;99.90
10175;DHT22;18221;38.704;0.152;2024-02-26T13:48:06;17.00;99.90
10175;DHT22;18221;38.704;0.152;2024-02-26T13:50:36;17.00;99.90
10175;DHT22;18221;38.704;0.152;2024-02-26T13:53:05;17.10;99.90
10175;DHT22;18221;38.704;0.152;2024-02-26T13:55:33;17.10;99.90
10175;DHT22;18221;38.704;0.152;2024-02-26T13:58:02;17.10;99.90
10175;DHT22;18221;38.704;0.152;2024-02-26T14:00:30;17.20;99.90
10175;DHT22;18221;38.704;0.152;2024-02-26T14:02:59;17.30;99.90
10175;DHT22;18221;38.704;0.152;2024-02-26T14:05:27;17.40;99.90
10175;DHT22;18221;38.704;0.152;2024-02-26T14:07:55;17.60;99.90
10175;DHT22;18221;38.704;0.152;2024-02-26T14:10:25;17.80;99.90
10175;DHT22;18221;38.704;0.152;2024-02-26T14:12:53;17.90;99.90
10175;DHT22;18221;38.704;0.152;2024-02-26T14:15:21;17.90;99.90
10175;DHT22;18221;38.704;0.152;2024-02-26T14:17:50;18.00;99.90
10175;DHT22;18221;38.704;0.152;2024-02-26T14:20:22;18.00;99.90
10175;DHT22;18221;38.704;0.152;2024-02-26T14:22:51;18.20;99.90
10175;DHT22;18221;38.704;0.152;2024-02-26T14:25:19;18.20;99.90
10175;DHT22;18221;38.704;0.152;2024-02-26T14:27:49;18.20;99.90
10175;DHT22;18221;38.704;0.152;2024-02-26T14:30:17;18.20;99.90
10175;DHT22;18221;38.704;0.152;2024-02-26T14:32:45;18.10;99.90
10175;DHT22;18221;38.704;0.152;2024-02-26T14:35:13;18.10;99.90
10175;DHT22;18221;38.704;0.152;2024-02-26T14:37:41;18.10;99.90
10175;DHT22;18221;38.704;0.152;2024-02-26T14:40:10;18.20;99.90
10175;DHT22;18221;38.704;0.152;2024-02-26T14:42:39;18.20;99.90
10175;DHT22;18221;38.704;0.152;2024-02-26T14:45:09;18.30;99.90
10175;DHT22;18221;38.704;0.152;2024-02-26T14:47:37;18.30;99.90
10175;DHT22;18221;38.704;0.152;2024-02-26T14:50:05;18.40;99.90
10175;DHT22;18221;38.704;0.152;2024-02-26T14:52:34;18.40;99.90
10175;DHT22;18221;38.704;0.152;2024-02-26T14:55:01;18.30;99.90
10175;DHT22;18221;38.704;0.152;2024-02-26T14:57:31;18.30;99.90
10175;DHT22;18221;38.704;0.152;2024-02-26T14:59:59;18.20;99.90
10175;DHT22;18221;38.704;0.152;2024-02-26T15:02:30;18.10;99.90
10175;DHT22;18221;38.704;0.152;2024-02-26T15:04:58;17.00;99.90
10175;DHT22;18221;38.704;0.152;2024-02-26T15:07:26;18.20;99.90
10175;DHT22;18221;38.704;0.152;2024-02-26T15:09:54;18.10;99.90
10175;DHT22;18221;38.704;0.152;2024-02-26T15:12:25;18.20;99.90
10175;DHT22;18221;38.704;0.152;2024-02-26T15:14:53;18.30;99.90
10175;DHT22;18221;38.704;0.152;2024-02-26T15:17:22;18.30;99.90
10175;DHT22;18221;38.704;0.152;2024-02-26T15:19:51;17.60;99.90
10175;DHT22;18221;38.704;0.152;2024-02-26T15:22:19;18.20;99.90
10175;DHT22;18221;38.704;0.152;2024-02-26T15:24:47;18.00;99.90
10175;DHT22;18221;38.704;0.152;2024-02-26T15:27:14;17.80;99.90
10175;DHT22;18221;38.704;0.152;2024-02-26T15:29:42;17.70;99.90
10175;DHT22;18221;38.704;0.152;2024-02-26T15:32:10;17.70;99.90
10175;DHT22;18221;38.704;0.152;2024-02-26T15:34:39;17.70;99.90
10175;DHT22;18221;38.704;0.152;2024-02-26T15:37:09;17.70;99.90
10175;DHT22;18221;38.704;0.152;2024-02-26T15:39:37;17.60;99.90
10175;DHT22;18221;38.704;0.152;2024-02-26T15:42:05;17.50;99.90
10175;DHT22;18221;38.704;0.152;2024-02-26T15:44:32;17.40;99.90
10175;DHT22;18221;38.704;0.152;2024-02-26T15:47:00;17.30;99.90
10175;DHT22;18221;38.704;0.152;2024-02-26T15:49:28;17.30;99.90